Time;durP1;ratioP1;P1;durP2;ratioP2;P2;SDS_P1;SDS_P2;PMS_P1;PMS_P2;Temp;Humidity;BMP_temperature;BMP_pressure;BME280_temperature;BME280_humidity;BME280_pressure;Samples;Min_cycle;Max_cycle;Signal;HPM_P1;HPM_P2
2023/02/23 04:18:41;;;;;;;5.13;4.82;;;7.70;99.90;;;;;;6092154;23;20386;-77
2023/02/23 04:21:08;;;;;;;4.70;4.50;;;7.70;99.90;;;;;;6068500;23;20424;-76
2023/02/23 04:23:39;;;;;;;5.22;4.93;;;7.70;99.90;;;;;;6093154;23;20448;-77
2023/02/23 04:26:06;;;;;;;4.88;4.68;;;7.70;99.90;;;;;;6067609;23;20453;-77
2023/02/23 04:28:33;;;;;;;5.22;4.93;;;7.60;99.90;;;;;;6068153;23;20374;-76
2023/02/23 04:31:00;;;;;;;4.65;4.45;;;7.60;99.90;;;;;;6091777;23;20382;-76
2023/02/23 04:33:27;;;;;;;4.40;4.20;;;7.60;99.90;;;;;;6068506;23;20797;-76
2023/02/23 04:35:55;;;;;;;4.70;4.40;;;7.60;99.90;;;;;;6066498;23;20414;-77
2023/02/23 04:38:22;;;;;;;3.97;3.77;;;7.60;99.90;;;;;;6093330;23;20381;-77
2023/02/23 04:40:50;;;;;;;4.53;4.32;;;7.60;99.90;;;;;;6091563;23;20448;-77
2023/02/23 04:43:17;;;;;;;4.38;4.18;;;7.60;99.90;;;;;;6068159;23;20415;-76
2023/02/23 04:45:44;;;;;;;4.95;4.68;;;7.60;99.90;;;;;;6066477;23;20414;-76
2023/02/23 04:48:11;;;;;;;4.47;4.28;;;7.60;99.90;;;;;;6092872;23;20440;-76
2023/02/23 04:50:38;;;;;;;4.82;4.53;;;7.60;99.90;;;;;;6067714;23;20743;-77
2023/02/23 04:53:05;;;;;;;4.88;4.57;;;7.60;99.90;;;;;;6067302;23;20365;-77
2023/02/23 04:55:32;;;;;;;4.20;3.90;;;7.50;99.90;;;;;;6091957;23;20715;-77
2023/02/23 04:58:00;;;;;;;4.18;3.97;;;7.50;99.90;;;;;;6092005;23;20381;-76
2023/02/23 05:00:28;;;;;;;4.75;4.47;;;7.40;99.90;;;;;;6067500;23;20389;-77
2023/02/23 05:02:56;;;;;;;4.00;3.80;;;7.40;99.90;;;;;;6092265;23;20378;-77
2023/02/23 05:05:23;;;;;;;4.18;3.97;;;7.30;99.90;;;;;;6092163;23;20389;-76
2023/02/23 05:07:50;;;;;;;4.05;3.85;;;7.40;99.90;;;;;;6092194;23;20374;-76
2023/02/23 05:10:17;;;;;;;4.35;4.15;;;7.40;99.90;;;;;;6092498;23;20707;-77
2023/02/23 05:12:45;;;;;;;4.80;4.60;;;7.40;99.90;;;;;;6068173;23;20385;-77
2023/02/23 05:15:12;;;;;;;4.68;4.47;;;7.30;99.90;;;;;;6066984;23;20846;-77
2023/02/23 05:17:42;;;;;;;5.17;4.87;;;7.30;99.90;;;;;;6092978;23;20495;-77
2023/02/23 05:20:11;;;;;;;5.40;5.10;;;7.30;99.90;;;;;;6066990;23;20385;-77
2023/02/23 05:22:38;;;;;;;4.47;4.18;;;7.30;99.90;;;;;;6067118;23;20935;-76
2023/02/23 05:25:07;;;;;;;4.97;4.70;;;7.30;99.90;;;;;;6091958;23;20404;-77
2023/02/23 05:27:35;;;;;;;6.20;5.90;;;7.30;99.90;;;;;;6067367;23;20373;-77
2023/02/23 05:30:03;;;;;;;7.90;7.43;;;7.20;99.90;;;;;;6066826;23;20394;-76
2023/02/23 05:32:30;;;;;;;6.10;5.80;;;7.20;99.90;;;;;;6092311;23;20397;-76
2023/02/23 05:34:57;;;;;;;5.05;4.85;;;7.20;99.90;;;;;;6066274;23;20842;-77
2023/02/23 05:37:24;;;;;;;5.10;4.80;;;7.20;99.90;;;;;;6067911;23;20408;-76
2023/02/23 05:39:51;;;;;;;5.07;4.88;;;7.20;99.90;;;;;;6067036;23;20374;-77
2023/02/23 05:42:18;;;;;;;4.65;4.35;;;7.20;99.90;;;;;;6067245;23;20433;-76
2023/02/23 05:44:45;;;;;;;5.30;5.00;;;7.20;99.90;;;;;;6067771;23;20377;-77
2023/02/23 05:47:12;;;;;;;4.60;4.40;;;7.10;99.90;;;;;;6091181;23;20373;-77
2023/02/23 05:49:38;;;;;;;5.25;5.03;;;7.10;99.90;;;;;;6067697;23;20842;-77
2023/02/23 05:52:05;;;;;;;5.53;5.22;;;7.10;99.90;;;;;;6065516;23;20909;-77
2023/02/23 05:54:32;;;;;;;4.63;4.43;;;7.10;99.90;;;;;;6067603;23;20373;-77
2023/02/23 05:56:59;;;;;;;4.53;4.32;;;7.10;99.90;;;;;;6065739;23;20432;-77
2023/02/23 05:59:27;;;;;;;4.70;4.40;;;7.10;99.90;;;;;;6068146;23;20381;-77
2023/02/23 06:01:54;;;;;;;3.70;3.60;;;7.10;99.90;;;;;;6065754;23;20381;-77
2023/02/23 06:04:23;;;;;;;3.90;3.70;;;7.10;99.90;;;;;;6067801;23;20385;-77
2023/02/23 06:06:50;;;;;;;3.40;3.30;;;7.00;99.90;;;;;;6067055;23;20428;-77
2023/02/23 06:09:17;;;;;;;3.53;3.35;;;7.00;99.90;;;;;;6066676;23;20381;-77
2023/02/23 06:11:44;;;;;;;3.85;3.67;;;7.00;99.90;;;;;;6066014;23;20402;-77
2023/02/23 06:14:12;;;;;;;3.65;3.45;;;6.90;99.90;;;;;;6091800;23;20382;-76
2023/02/23 06:16:39;;;;;;;3.70;3.50;;;6.80;99.90;;;;;;6066864;23;20381;-77
2023/02/23 06:19:06;;;;;;;3.38;3.28;;;6.80;99.90;;;;;;6066222;23;20381;-77
2023/02/23 06:21:33;;;;;;;4.25;4.05;;;6.80;99.90;;;;;;6066829;23;20400;-77
2023/02/23 06:24:00;;;;;;;3.60;3.50;;;6.80;99.90;;;;;;6066248;23;20377;-77
2023/02/23 06:26:27;;;;;;;3.78;3.58;;;6.80;99.90;;;;;;6066713;23;20440;-78
2023/02/23 06:28:55;;;;;;;3.60;3.42;;;6.80;99.90;;;;;;6042022;23;20433;-77
2023/02/23 06:31:22;;;;;;;4.57;4.38;;;6.80;99.90;;;;;;6066289;23;20381;-77
2023/02/23 06:33:49;;;;;;;4.70;4.43;;;6.70;99.90;;;;;;6066949;23;20385;-77
2023/02/23 06:36:16;;;;;;;4.03;3.83;;;6.60;99.90;;;;;;6066134;23;20814;-77
2023/02/23 06:38:44;;;;;;;4.07;3.88;;;6.60;99.90;;;;;;6092659;23;20384;-77
2023/02/23 06:41:12;;;;;;;3.90;3.70;;;6.60;99.90;;;;;;6091459;23;20374;-77
2023/02/23 06:43:39;;;;;;;4.25;4.05;;;6.60;99.90;;;;;;6067057;23;20751;-77
2023/02/23 06:46:06;;;;;;;3.70;3.50;;;6.60;99.90;;;;;;6066930;23;20373;-77
2023/02/23 06:48:34;;;;;;;4.20;3.90;;;6.50;99.90;;;;;;6068962;23;20429;-78
2023/02/23 06:51:01;;;;;;;5.57;5.28;;;6.50;99.90;;;;;;6068591;23;20369;-77
2023/02/23 06:53:29;;;;;;;6.68;6.28;;;6.40;99.90;;;;;;6068400;23;20396;-78
2023/02/23 06:55:56;;;;;;;5.93;5.53;;;6.30;99.90;;;;;;6067660;23;20424;-77
2023/02/23 06:58:23;;;;;;;4.80;4.60;;;6.30;99.90;;;;;;6068419;23;20827;-78
2023/02/23 07:00:50;;;;;;;4.47;4.28;;;6.30;99.90;;;;;;6069019;23;20754;-78
2023/02/23 07:03:18;;;;;;;4.90;4.70;;;6.40;99.90;;;;;;6067987;23;20366;-77
2023/02/23 07:05:45;;;;;;;5.90;5.50;;;6.40;99.90;;;;;;6067133;23;20934;-77
2023/02/23 07:08:11;;;;;;;5.43;5.03;;;6.40;99.90;;;;;;6062950;23;20381;-77
2023/02/23 07:10:38;;;;;;;6.10;5.70;;;6.50;99.90;;;;;;6066439;23;20692;-76
2023/02/23 07:13:05;;;;;;;5.90;5.50;;;6.50;99.90;;;;;;6067680;23;20408;-76
2023/02/23 07:15:37;;;;;;;4.70;4.40;;;6.50;99.90;;;;;;6093116;23;20405;-78
2023/02/23 07:18:04;;;;;;;5.10;4.80;;;6.60;99.90;;;;;;6067782;23;20381;-77
2023/02/23 07:20:32;;;;;;;4.50;4.30;;;6.60;99.90;;;;;;6094064;23;20382;-77
2023/02/23 07:23:00;;;;;;;4.18;3.97;;;6.60;99.90;;;;;;6094194;23;20825;-77
2023/02/23 07:25:28;;;;;;;4.03;3.83;;;6.50;99.90;;;;;;6078199;23;20683;-77
2023/02/23 07:27:55;;;;;;;3.83;3.72;;;6.50;99.90;;;;;;6077062;23;20730;-78
2023/02/23 07:30:25;;;;;;;4.03;3.83;;;6.50;99.90;;;;;;6076949;23;20366;-77
2023/02/23 07:32:52;;;;;;;4.03;3.83;;;6.40;99.90;;;;;;6103851;23;20722;-77
2023/02/23 07:35:19;;;;;;;4.00;3.80;;;6.40;99.90;;;;;;6077448;23;20389;-77
2023/02/23 07:37:46;;;;;;;4.00;3.80;;;6.40;99.90;;;;;;6076635;23;20755;-78
2023/02/23 07:40:14;;;;;;;3.83;3.60;;;6.40;99.90;;;;;;6080713;23;20381;-77
2023/02/23 07:42:41;;;;;;;4.45;4.18;;;6.40;99.90;;;;;;6106621;23;20378;-77
2023/02/23 07:45:08;;;;;;;3.88;3.67;;;6.40;99.90;;;;;;6105088;23;20377;-77
2023/02/23 07:47:38;;;;;;;4.20;4.00;;;6.40;99.90;;;;;;6106177;23;20414;-76
2023/02/23 07:50:09;;;;;;;4.38;4.18;;;6.40;99.90;;;;;;6081647;23;20385;-78
2023/02/23 07:52:37;;;;;;;4.95;4.65;;;6.40;99.90;;;;;;6078917;23;20373;-77
2023/02/23 07:55:06;;;;;;;4.65;4.45;;;6.40;99.90;;;;;;6073387;23;20387;-76
2023/02/23 07:57:34;;;;;;;4.30;4.10;;;6.40;99.90;;;;;;6072505;23;20696;-76
2023/02/23 08:00:01;;;;;;;4.35;4.15;;;6.50;99.90;;;;;;6072598;23;20378;-76
2023/02/23 08:02:28;;;;;;;4.70;4.50;;;6.60;99.90;;;;;;6074724;23;20681;-76
2023/02/23 08:04:55;;;;;;;5.43;5.13;;;6.60;99.90;;;;;;6075116;23;20407;-77
2023/02/23 08:07:24;;;;;;;6.80;6.40;;;6.60;99.90;;;;;;6069588;23;20386;-76
2023/02/23 08:09:52;;;;;;;5.40;5.10;;;6.70;99.90;;;;;;6063602;23;20383;-76
2023/02/23 08:12:19;;;;;;;5.03;4.80;;;6.80;99.90;;;;;;6063270;23;20768;-76
2023/02/23 08:14:46;;;;;;;6.38;5.97;;;6.90;99.90;;;;;;6064238;23;20383;-76
2023/02/23 08:17:13;;;;;;;7.15;6.75;;;7.00;99.90;;;;;;6063194;23;20850;-75
2023/02/23 08:19:40;;;;;;;7.72;7.22;;;7.10;99.90;;;;;;6063489;23;20455;-76
2023/02/23 08:22:07;;;;;;;6.05;5.75;;;7.20;99.90;;;;;;6064368;23;20382;-77
2023/02/23 08:24:36;;;;;;;6.72;6.32;;;7.30;99.90;;;;;;6063048;23;20414;-76
2023/02/23 08:27:03;;;;;;;6.78;6.38;;;7.40;99.90;;;;;;6064121;23;20851;-76
2023/02/23 08:29:30;;;;;;;6.10;5.80;;;7.60;99.90;;;;;;6062894;23;20379;-76
2023/02/23 08:32:01;;;;;;;6.65;6.25;;;7.70;99.90;;;;;;6063861;23;20379;-76
2023/02/23 08:34:28;;;;;;;7.40;7.00;;;7.80;99.90;;;;;;6062607;23;20863;-76
2023/02/23 08:36:55;;;;;;;7.57;7.10;;;7.90;99.90;;;;;;6063510;23;20459;-76
2023/02/23 08:39:22;;;;;;;6.60;6.10;;;8.10;99.90;;;;;;6061993;23;20379;-75
2023/02/23 08:41:49;;;;;;;6.32;5.95;;;8.20;99.90;;;;;;6063886;23;20387;-76
2023/02/23 08:44:16;;;;;;;6.90;6.50;;;8.20;99.90;;;;;;6061776;23;20389;-77
2023/02/23 08:46:44;;;;;;;6.40;6.00;;;8.30;99.90;;;;;;6063609;23;20414;-76
2023/02/23 08:49:11;;;;;;;6.90;6.50;;;8.40;99.90;;;;;;6063878;23;20859;-76
2023/02/23 08:51:39;;;;;;;6.17;5.87;;;8.50;99.90;;;;;;6063149;23;20406;-77
2023/02/23 08:54:12;;;;;;;6.13;5.82;;;8.60;99.90;;;;;;6073011;23;20421;-76
2023/02/23 08:56:40;;;;;;;6.20;5.80;;;8.60;99.90;;;;;;6067071;23;20738;-76
2023/02/23 08:59:08;;;;;;;6.57;6.18;;;8.70;99.90;;;;;;6093358;23;20388;-76
2023/02/23 09:01:35;;;;;;;6.50;6.10;;;8.80;99.90;;;;;;6066866;23;20382;-76
2023/02/23 09:04:04;;;;;;;6.38;6.05;;;8.90;99.90;;;;;;6068195;23;20706;-76
2023/02/23 09:06:34;;;;;;;6.65;6.25;;;9.00;99.90;;;;;;6091858;23;20393;-76
2023/02/23 09:09:01;;;;;;;6.33;6.03;;;9.10;99.90;;;;;;6067932;23;20432;-76
2023/02/23 09:11:28;;;;;;;6.63;6.22;;;9.20;99.90;;;;;;6067072;23;20428;-76
2023/02/23 09:13:55;;;;;;;6.47;6.07;;;9.20;99.90;;;;;;6093046;23;20374;-77
2023/02/23 09:16:21;;;;;;;6.45;6.05;;;9.30;99.90;;;;;;6091811;23;20481;-76
2023/02/23 09:18:49;;;;;;;6.90;6.40;;;9.30;99.90;;;;;;6067278;23;20444;-76
2023/02/23 09:21:23;;;;;;;6.90;6.50;;;9.40;99.90;;;;;;6067705;23;20869;-77
2023/02/23 09:23:54;;;;;;;7.07;6.68;;;9.50;99.90;;;;;;6068012;23;20881;-76
2023/02/23 09:26:23;;;;;;;7.00;6.50;;;9.60;99.90;;;;;;6066309;23;20404;-76
2023/02/23 09:28:52;;;;;;;6.68;6.28;;;9.80;99.90;;;;;;6066629;23;20466;-76
2023/02/23 09:31:21;;;;;;;6.28;5.88;;;9.90;99.90;;;;;;6066478;23;20499;-77
2023/02/23 09:33:50;;;;;;;6.25;5.95;;;10.00;99.90;;;;;;6067425;23;20758;-76
2023/02/23 09:36:20;;;;;;;6.63;6.22;;;10.10;99.90;;;;;;6067390;23;20473;-76
2023/02/23 09:38:53;;;;;;;6.47;6.07;;;10.20;99.90;;;;;;6092048;23;20830;-76
2023/02/23 09:41:29;;;;;;;6.72;6.32;;;10.30;99.90;;;;;;6066650;23;20385;-77
2023/02/23 09:44:22;;;;;;;5.68;5.38;;;10.40;99.90;;;;;;6067066;23;20373;-77
2023/02/23 09:47:10;;;;;;;5.97;5.57;;;10.60;99.90;;;;;;6066083;23;20389;-77
2023/02/23 09:49:42;;;;;;;6.82;6.43;;;10.70;99.90;;;;;;6066310;23;20855;-76
2023/02/23 09:52:22;;;;;;;6.07;5.78;;;10.80;99.90;;;;;;6092326;23;20381;-77
2023/02/23 09:54:50;;;;;;;6.03;5.72;;;10.90;99.90;;;;;;6066406;23;20378;-77
2023/02/23 09:57:28;;;;;;;6.37;5.97;;;10.90;99.90;;;;;;6067051;23;20417;-77
2023/02/23 09:59:54;;;;;;;6.28;5.88;;;10.90;99.90;;;;;;6066179;23;20417;-77
2023/02/23 10:02:38;;;;;;;5.65;5.35;;;11.00;99.90;;;;;;6092900;23;20769;-77
2023/02/23 10:05:10;;;;;;;5.70;5.40;;;11.20;99.90;;;;;;6066526;23;20424;-76
2023/02/23 10:08:13;;;;;;;5.37;5.07;;;11.40;99.90;;;;;;6067215;23;20864;-77
2023/02/23 10:10:54;;;;;;;5.88;5.57;;;11.50;99.90;;;;;;6058834;23;20416;-77
2023/02/23 10:13:38;;;;;;;7.10;6.63;;;11.50;99.90;;;;;;6066324;23;20436;-77
2023/02/23 10:16:35;;;;;;;6.57;6.18;;;11.40;99.90;;;;;;6092487;23;20687;-77
2023/02/23 10:19:02;;;;;;;6.32;5.93;;;11.40;99.90;;;;;;6067034;23;20456;-76
2023/02/23 10:21:39;;;;;;;6.88;6.47;;;11.40;99.90;;;;;;6094292;23;20385;-77
2023/02/23 10:24:34;;;;;;;6.97;6.47;;;11.20;99.90;;;;;;6068093;23;20417;-76
2023/02/23 10:27:18;;;;;;;6.65;6.25;;;11.30;99.90;;;;;;6067858;23;20385;-76
2023/02/23 10:29:50;;;;;;;6.65;6.25;;;11.50;99.90;;;;;;6092616;23;20444;-77
2023/02/23 10:32:31;;;;;;;7.22;6.75;;;11.50;99.90;;;;;;6068876;23;20384;-77
2023/02/23 10:34:59;;;;;;;6.80;6.38;;;11.50;99.90;;;;;;6068003;23;20992;-76
2023/02/23 10:37:26;;;;;;;6.65;6.25;;;11.40;99.90;;;;;;6068302;23;20696;-77
2023/02/23 10:39:53;;;;;;;5.80;5.50;;;11.30;99.90;;;;;;6093551;23;20529;-76
2023/02/23 10:42:27;;;;;;;6.65;6.25;;;11.30;99.90;;;;;;6068460;23;20401;-77
2023/02/23 10:44:55;;;;;;;6.63;6.22;;;11.30;99.90;;;;;;6068079;23;20869;-77
2023/02/23 10:47:27;;;;;;;7.10;6.70;;;11.40;99.90;;;;;;6068557;23;20381;-76
2023/02/23 10:49:55;;;;;;;6.53;6.13;;;11.60;99.90;;;;;;6067790;23;20450;-77
2023/02/23 10:52:28;;;;;;;7.37;6.90;;;11.50;99.90;;;;;;6068495;23;20888;-78
2023/02/23 10:54:59;;;;;;;7.25;6.85;;;11.60;99.90;;;;;;6067907;23;20392;-77
2023/02/23 10:57:32;;;;;;;6.57;6.18;;;11.80;99.90;;;;;;6068633;23;20396;-76
2023/02/23 11:00:15;;;;;;;6.43;6.03;;;12.00;99.90;;;;;;6067152;23;20440;-77
2023/02/23 11:02:43;;;;;;;5.68;5.38;;;12.30;99.90;;;;;;6068353;23;20413;-77
2023/02/23 11:05:51;;;;;;;6.13;5.72;;;12.40;99.90;;;;;;6067342;23;20373;-77
2023/02/23 11:08:30;;;;;;;6.40;6.00;;;12.60;99.90;;;;;;6067385;23;20373;-77
2023/02/23 11:11:15;;;;;;;6.30;5.90;;;12.80;99.90;;;;;;6067483;23;20385;-77
2023/02/23 11:13:49;;;;;;;5.43;5.13;;;13.00;99.90;;;;;;6068357;23;20722;-77
2023/02/23 11:16:36;;;;;;;5.30;5.00;;;13.30;99.10;;;;;;6065971;23;20382;-77
2023/02/23 11:19:06;;;;;;;5.22;4.93;;;13.30;96.00;;;;;;6064759;23;20370;-77
2023/02/23 11:21:37;;;;;;;5.40;5.10;;;13.50;95.40;;;;;;6068367;23;20378;-77
2023/02/23 11:24:29;;;;;;;5.07;4.78;;;13.60;93.90;;;;;;6067865;23;20775;-76
2023/02/23 11:27:02;;;;;;;4.78;4.47;;;13.30;93.60;;;;;;6066145;23;20444;-77
2023/02/23 11:29:37;;;;;;;4.93;4.70;;;13.40;93.10;;;;;;6068014;23;20381;-77
2023/02/23 11:32:14;;;;;;;5.20;4.90;;;13.20;93.80;;;;;;6067118;23;20717;-78
2023/02/23 11:34:42;;;;;;;4.80;4.50;;;13.30;94.40;;;;;;6092803;23;20392;-76
2023/02/23 11:37:13;;;;;;;4.05;3.85;;;13.40;92.60;;;;;;6089707;23;20385;-77
2023/02/23 11:40:19;;;;;;;4.83;4.53;;;13.60;92.00;;;;;;6067263;23;20478;-76
2023/02/23 11:43:08;;;;;;;4.65;4.35;;;13.70;92.50;;;;;;5997689;23;20797;-76
2023/02/23 11:45:52;;;;;;;4.17;3.97;;;13.60;88.50;;;;;;6066837;23;20445;-77
2023/02/23 11:48:33;;;;;;;4.57;4.38;;;13.40;91.00;;;;;;6068603;23;20411;-77
2023/02/23 11:51:01;;;;;;;5.28;4.97;;;13.80;91.20;;;;;;6045475;23;20374;-77
2023/02/23 11:53:35;;;;;;;4.68;4.40;;;13.60;90.30;;;;;;6093217;23;20377;-77
2023/02/23 11:56:11;;;;;;;4.28;4.07;;;13.60;90.80;;;;;;6067490;23;20437;-76
2023/02/23 11:58:52;;;;;;;4.32;4.13;;;13.90;89.60;;;;;;6066824;23;20763;-77
2023/02/23 12:01:45;;;;;;;4.00;3.80;;;14.00;86.60;;;;;;6068243;23;20377;-77
2023/02/23 12:04:48;;;;;;;3.33;3.13;;;14.40;80.90;;;;;;6066504;23;20425;-76
2023/02/23 12:07:18;;;;;;;4.07;3.78;;;14.50;76.80;;;;;;6037247;23;20378;-77
2023/02/23 12:09:47;;;;;;;4.00;3.78;;;14.00;79.10;;;;;;6066724;23;20386;-76
2023/02/23 12:12:20;;;;;;;3.67;3.47;;;14.00;85.40;;;;;;6066953;23;20373;-76
2023/02/23 12:14:52;;;;;;;3.38;3.17;;;14.30;82.40;;;;;;6068139;23;20456;-77
2023/02/23 12:17:40;;;;;;;3.45;3.25;;;14.10;80.20;;;;;;6092837;23;20377;-76
2023/02/23 12:20:19;;;;;;;3.60;3.40;;;14.00;83.00;;;;;;6067337;23;20404;-77
2023/02/23 12:22:53;;;;;;;3.13;2.92;;;14.00;84.70;;;;;;6068175;23;20382;-76
2023/02/23 12:25:34;;;;;;;3.10;2.90;;;14.20;82.20;;;;;;6091621;23;20397;-76
2023/02/23 12:28:17;;;;;;;2.75;2.65;;;14.10;81.70;;;;;;6066386;23;20688;-77
2023/02/23 12:31:17;;;;;;;2.78;2.67;;;14.20;80.70;;;;;;6066939;23;20378;-76
2023/02/23 12:33:47;;;;;;;3.10;3.00;;;14.20;80.70;;;;;;6056312;23;20385;-76
2023/02/23 12:36:41;;;;;;;3.60;3.40;;;14.20;76.80;;;;;;6092801;23;20413;-77
2023/02/23 12:39:19;;;;;;;3.10;3.00;;;13.90;81.60;;;;;;6066891;23;20369;-77
2023/02/23 12:42:05;;;;;;;3.30;3.10;;;13.90;83.10;;;;;;6066391;23;20385;-75
2023/02/23 12:44:50;;;;;;;2.75;2.65;;;14.00;83.10;;;;;;6066788;23;20719;-77
2023/02/23 12:47:26;;;;;;;2.67;2.57;;;14.00;79.80;;;;;;6091235;23;20443;-76
2023/02/23 12:50:20;;;;;;;3.13;2.92;;;14.10;78.60;;;;;;6066824;23;20445;-77
2023/02/23 12:52:56;;;;;;;3.37;3.17;;;14.00;79.60;;;;;;6067118;23;20388;-76
2023/02/23 12:55:49;;;;;;;2.75;2.65;;;14.00;80.70;;;;;;6066479;23;20746;-76
2023/02/23 12:58:22;;;;;;;3.17;2.97;;;14.10;81.30;;;;;;6091289;23;20422;-76
2023/02/23 13:01:02;;;;;;;3.20;3.00;;;14.00;81.80;;;;;;6092840;23;20460;-76
2023/02/23 13:03:32;;;;;;;3.13;2.97;;;14.00;82.30;;;;;;6066714;23;20675;-76
2023/02/23 13:06:15;;;;;;;3.13;2.92;;;14.00;80.50;;;;;;6092695;23;20421;-77
2023/02/23 13:08:48;;;;;;;4.00;3.80;;;14.10;79.90;;;;;;6066054;23;21226;-77
2023/02/23 13:11:24;;;;;;;3.05;2.92;;;13.80;82.50;;;;;;6067500;23;20425;-77
2023/02/23 13:14:24;;;;;;;3.67;3.47;;;13.90;84.20;;;;;;6066466;23;20377;-77
2023/02/23 13:17:18;;;;;;;3.42;3.22;;;13.90;84.10;;;;;;6059379;23;20826;-77
2023/02/23 13:19:58;;;;;;;3.38;3.17;;;13.90;81.00;;;;;;6080381;23;20380;-77
2023/02/23 13:22:48;;;;;;;3.63;3.42;;;13.90;82.90;;;;;;6067303;23;20461;-77
2023/02/23 13:25:41;;;;;;;3.03;2.92;;;14.30;80.10;;;;;;6066693;23;20385;-77
2023/02/23 13:28:31;;;;;;;3.97;3.78;;;14.50;78.90;;;;;;6066343;23;20449;-77
2023/02/23 13:30:59;;;;;;;3.22;3.13;;;14.60;76.00;;;;;;6066445;23;20373;-76
2023/02/23 13:33:33;;;;;;;3.45;3.25;;;14.50;76.00;;;;;;6067627;23;20707;-77
2023/02/23 13:36:11;;;;;;;3.40;3.20;;;14.60;75.30;;;;;;6068088;23;20458;-77
2023/02/23 13:38:52;;;;;;;3.63;3.42;;;14.70;74.70;;;;;;6067031;23;20392;-77
2023/02/23 13:41:32;;;;;;;2.90;2.80;;;14.80;72.80;;;;;;6066614;23;20402;-77
2023/02/23 13:44:43;;;;;;;3.13;2.92;;;14.80;71.80;;;;;;6091874;23;20440;-77
2023/02/23 13:47:13;;;;;;;2.95;2.75;;;14.90;71.40;;;;;;6052008;23;20405;-77
2023/02/23 13:49:50;;;;;;;3.30;3.10;;;15.10;72.90;;;;;;6066468;23;20386;-77
2023/02/23 13:52:40;;;;;;;3.40;3.20;;;15.20;71.70;;;;;;6065739;23;20405;-76
2023/02/23 13:55:25;;;;;;;2.83;2.72;;;15.40;67.20;;;;;;6065624;23;20401;-76
2023/02/23 13:58:15;;;;;;;3.33;3.13;;;15.30;66.10;;;;;;6067706;23;20492;-77
2023/02/23 14:00:42;;;;;;;2.70;2.60;;;15.40;67.30;;;;;;6066529;23;20374;-77
2023/02/23 14:03:23;;;;;;;3.55;3.38;;;15.30;68.50;;;;;;6092161;23;20382;-76
2023/02/23 14:05:56;;;;;;;3.40;3.20;;;14.80;68.20;;;;;;6066299;23;20397;-77
2023/02/23 14:08:37;;;;;;;3.40;3.20;;;14.60;71.70;;;;;;6066663;23;20730;-77
2023/02/23 14:11:05;;;;;;;3.53;3.33;;;14.50;71.40;;;;;;6066351;23;20449;-77
2023/02/23 14:13:38;;;;;;;3.00;2.80;;;14.40;71.40;;;;;;6066831;23;20465;-77
2023/02/23 14:16:18;;;;;;;3.67;3.47;;;14.40;72.70;;;;;;6066404;23;20369;-77
2023/02/23 14:19:12;;;;;;;2.97;2.88;;;14.50;73.30;;;;;;6066064;23;20381;-77
2023/02/23 14:21:57;;;;;;;3.22;3.13;;;14.40;72.90;;;;;;6092277;23;20389;-77
2023/02/23 14:24:25;;;;;;;3.42;3.22;;;14.60;71.70;;;;;;6091424;23;20758;-77
2023/02/23 14:27:13;;;;;;;3.42;3.22;;;14.80;71.40;;;;;;6066177;23;20416;-77
2023/02/23 14:30:04;;;;;;;3.20;3.00;;;14.70;70.00;;;;;;6065697;23;20373;-77
2023/02/23 14:32:37;;;;;;;3.38;3.17;;;14.60;70.90;;;;;;6065239;23;20420;-77
2023/02/23 14:35:25;;;;;;;3.00;2.90;;;14.60;71.20;;;;;;6066953;23;20380;-77
2023/02/23 14:37:59;;;;;;;3.25;3.05;;;14.70;71.80;;;;;;6065744;23;20400;-77
2023/02/23 14:40:39;;;;;;;3.33;3.13;;;14.80;71.60;;;;;;6091764;23;20385;-77
2023/02/23 14:43:30;;;;;;;2.95;2.85;;;14.60;71.10;;;;;;6065714;23;20731;-77
2023/02/23 14:46:00;;;;;;;3.15;2.95;;;14.60;72.80;;;;;;6065472;23;20381;-77
2023/02/23 14:48:28;;;;;;;3.50;3.30;;;14.50;71.60;;;;;;6066919;23;20409;-78
2023/02/23 14:51:15;;;;;;;3.08;2.92;;;14.10;72.90;;;;;;6090678;23;20377;-77
2023/02/23 14:53:42;;;;;;;3.08;2.92;;;14.10;73.70;;;;;;6065520;23;20723;-77
2023/02/23 14:56:21;;;;;;;2.40;2.30;;;14.20;73.40;;;;;;6066715;23;20381;-78
2023/02/23 14:58:57;;;;;;;2.80;2.70;;;14.30;73.30;;;;;;6065824;23;20915;-77
2023/02/23 15:01:36;;;;;;;2.45;2.35;;;14.50;70.90;;;;;;6066466;23;20393;-77
2023/02/23 15:04:10;;;;;;;3.03;2.93;;;14.40;70.60;;;;;;6065577;23;20374;-77
2023/02/23 15:06:40;;;;;;;2.13;2.03;;;14.30;70.00;;;;;;6066060;23;20723;-77
2023/02/23 15:09:16;;;;;;;2.80;2.60;;;14.00;68.80;;;;;;6066858;23;20388;-77
2023/02/23 15:11:47;;;;;;;2.20;2.00;;;14.00;70.40;;;;;;6067718;23;20377;-77
2023/02/23 15:14:16;;;;;;;2.70;2.50;;;14.00;69.80;;;;;;6067107;23;20695;-77
2023/02/23 15:16:54;;;;;;;2.40;2.30;;;14.10;68.90;;;;;;6092017;23;20389;-77
2023/02/23 15:19:26;;;;;;;2.40;2.30;;;14.10;68.80;;;;;;6093474;23;20428;-77
2023/02/23 15:21:56;;;;;;;2.05;1.95;;;14.00;67.40;;;;;;6066517;23;20824;-76
2023/02/23 15:24:30;;;;;;;2.40;2.30;;;13.90;68.00;;;;;;6067971;23;20385;-77
2023/02/23 15:26:58;;;;;;;1.95;1.85;;;13.90;68.70;;;;;;6066995;23;20382;-77
2023/02/23 15:29:32;;;;;;;2.30;2.20;;;14.00;68.70;;;;;;6067625;23;20377;-77
2023/02/23 15:32:20;;;;;;;2.13;2.03;;;14.00;68.90;;;;;;6092410;23;20373;-77
2023/02/23 15:34:48;;;;;;;1.92;1.83;;;14.00;68.90;;;;;;6068238;23;20483;-76
2023/02/23 15:37:26;;;;;;;1.63;1.52;;;14.00;68.00;;;;;;6067344;23;20373;-77
2023/02/23 15:40:04;;;;;;;1.77;1.67;;;14.00;67.10;;;;;;6067138;23;20378;-76
2023/02/23 15:42:43;;;;;;;1.83;1.73;;;14.00;68.30;;;;;;6067408;23;20369;-77
2023/02/23 15:45:42;;;;;;;2.20;2.10;;;14.00;68.20;;;;;;6067112;23;20738;-77
2023/02/23 15:48:19;;;;;;;1.60;1.50;;;13.90;67.70;;;;;;6091952;23;20396;-76
2023/02/23 15:50:52;;;;;;;1.90;1.80;;;13.90;66.20;;;;;;6068943;23;20392;-76
2023/02/23 15:53:25;;;;;;;2.08;1.98;;;13.90;67.40;;;;;;6067076;23;20401;-77
2023/02/23 15:55:59;;;;;;;1.95;1.85;;;13.90;68.40;;;;;;6093329;23;20377;-77
2023/02/23 15:58:30;;;;;;;2.10;2.00;;;14.00;69.40;;;;;;6067258;23;21189;-77
2023/02/23 16:01:08;;;;;;;17.48;16.08;;;13.90;68.20;;;;;;6093154;23;20378;-77
2023/02/23 16:03:43;;;;;;;6.63;6.18;;;13.80;67.90;;;;;;6092024;23;20389;-77
2023/02/23 16:06:25;;;;;;;2.38;2.28;;;13.80;67.20;;;;;;6092705;23;20412;-76
2023/02/23 16:09:30;;;;;;;1.52;1.42;;;13.80;67.60;;;;;;6092405;23;20393;-77
2023/02/23 16:12:15;;;;;;;2.30;2.20;;;13.80;67.60;;;;;;6049386;23;20752;-76
2023/02/23 16:14:43;;;;;;;3.42;3.22;;;13.90;68.70;;;;;;6066728;23;20389;-76
2023/02/23 16:17:38;;;;;;;2.20;2.10;;;13.80;69.30;;;;;;6066144;23;20446;-76
2023/02/23 16:20:27;;;;;;;2.35;2.25;;;13.80;69.20;;;;;;6066356;23;20361;-76
2023/02/23 16:22:56;;;;;;;2.00;1.90;;;13.70;69.20;;;;;;6066629;23;20381;-76
2023/02/23 16:25:25;;;;;;;2.30;2.13;;;13.60;67.10;;;;;;6092967;23;20751;-76
2023/02/23 16:27:59;;;;;;;2.38;2.20;;;13.50;68.20;;;;;;6066697;23;20370;-76
2023/02/23 16:30:34;;;;;;;2.40;2.30;;;13.40;68.70;;;;;;6092461;23;20388;-76
2023/02/23 16:33:25;;;;;;;2.00;1.90;;;13.40;69.40;;;;;;6066785;23;20377;-76
2023/02/23 16:36:12;;;;;;;1.92;1.83;;;13.40;70.20;;;;;;6066278;23;20432;-77
2023/02/23 16:38:40;;;;;;;1.95;1.85;;;13.40;70.00;;;;;;6092678;23;20389;-76
2023/02/23 16:41:30;;;;;;;2.28;2.17;;;13.30;71.00;;;;;;6066693;23;20368;-76
2023/02/23 16:44:04;;;;;;;3.00;2.80;;;13.30;71.60;;;;;;6090320;23;20747;-75
2023/02/23 16:46:52;;;;;;;2.25;2.15;;;13.20;71.90;;;;;;6066851;23;20736;-76
2023/02/23 16:49:22;;;;;;;2.43;2.33;;;13.20;72.90;;;;;;6066301;23;20462;-76
2023/02/23 16:51:51;;;;;;;3.00;2.80;;;13.20;73.90;;;;;;6092486;23;20445;-76
2023/02/23 16:54:18;;;;;;;2.30;2.20;;;13.10;74.90;;;;;;6066070;23;20384;-76
2023/02/23 16:56:46;;;;;;;2.40;2.30;;;13.10;76.00;;;;;;6092412;23;20374;-76
2023/02/23 16:59:16;;;;;;;2.60;2.47;;;13.00;77.80;;;;;;6066187;23;20441;-76
2023/02/23 17:01:48;;;;;;;2.30;2.20;;;13.00;79.10;;;;;;6090076;23;20445;-76
2023/02/23 17:04:17;;;;;;;2.13;2.03;;;12.90;80.10;;;;;;6063949;23;20778;-78
2023/02/23 17:06:47;;;;;;;2.63;2.53;;;12.90;80.50;;;;;;6073809;23;20452;-76
2023/02/23 17:09:14;;;;;;;2.55;2.45;;;12.80;80.80;;;;;;6075092;23;20406;-76
2023/02/23 17:11:45;;;;;;;2.58;2.47;;;12.70;81.50;;;;;;6098769;23;20386;-75
2023/02/23 17:14:23;;;;;;;2.10;2.00;;;12.70;82.00;;;;;;6074234;23;20456;-78
2023/02/23 17:16:51;;;;;;;2.30;2.20;;;12.70;83.00;;;;;;6072244;23;20381;-77
2023/02/23 17:19:17;;;;;;;1.87;1.77;;;12.60;83.90;;;;;;6069703;23;20737;-77
2023/02/23 17:21:45;;;;;;;2.40;2.30;;;12.60;84.20;;;;;;6096565;23;20388;-77
2023/02/23 17:24:12;;;;;;;1.80;1.70;;;12.50;84.30;;;;;;6072147;23;20385;-77
2023/02/23 17:26:40;;;;;;;2.15;2.05;;;12.50;84.30;;;;;;6074334;23;20392;-77
2023/02/23 17:29:08;;;;;;;2.22;2.13;;;12.40;84.20;;;;;;6072172;23;20381;-80
2023/02/23 17:31:36;;;;;;;2.38;2.28;;;12.40;84.70;;;;;;6095523;23;20750;-78
2023/02/23 17:34:04;;;;;;;2.45;2.35;;;12.40;85.50;;;;;;6070206;23;20401;-75
2023/02/23 17:36:31;;;;;;;3.20;3.00;;;12.30;86.80;;;;;;6071023;23;20373;-75
2023/02/23 17:38:58;;;;;;;2.70;2.50;;;12.20;85.00;;;;;;6095630;23;20382;-75
2023/02/23 17:41:26;;;;;;;2.30;2.20;;;12.20;84.50;;;;;;6094584;23;20373;-76